sensor_id;sensor_type;location;lat;lon;timestamp;temperature;humidity
34492;DHT22;20737;49.908;8.126;2022-12-31T00:00:27;13.10;99.90
34492;DHT22;20737;49.908;8.126;2022-12-31T00:02:54;13.20;99.90
34492;DHT22;20737;49.908;8.126;2022-12-31T00:05:24;13.20;99.90
34492;DHT22;20737;49.908;8.126;2022-12-31T00:07:52;13.10;99.90
34492;DHT22;20737;49.908;8.126;2022-12-31T00:10:21;13.10;99.90
34492;DHT22;20737;49.908;8.126;2022-12-31T00:12:47;13.20;99.90
34492;DHT22;20737;49.908;8.126;2022-12-31T00:15:16;13.30;99.90
34492;DHT22;20737;49.908;8.126;2022-12-31T00:17:43;13.30;99.90
34492;DHT22;20737;49.908;8.126;2022-12-31T00:20:10;13.40;99.90
34492;DHT22;20737;49.908;8.126;2022-12-31T00:22:37;13.40;99.90
34492;DHT22;20737;49.908;8.126;2022-12-31T00:25:06;13.40;99.90
34492;DHT22;20737;49.908;8.126;2022-12-31T00:27:33;13.50;99.90
34492;DHT22;20737;49.908;8.126;2022-12-31T00:30:00;13.50;99.90
34492;DHT22;20737;49.908;8.126;2022-12-31T00:32:27;13.50;99.90
34492;DHT22;20737;49.908;8.126;2022-12-31T00:34:54;13.40;99.90
34492;DHT22;20737;49.908;8.126;2022-12-31T00:37:20;13.50;99.90
34492;DHT22;20737;49.908;8.126;2022-12-31T00:39:47;13.60;99.90
34492;DHT22;20737;49.908;8.126;2022-12-31T00:42:15;13.60;99.90
34492;DHT22;20737;49.908;8.126;2022-12-31T00:44:45;13.50;99.90
34492;DHT22;20737;49.908;8.126;2022-12-31T00:47:11;13.60;99.90
34492;DHT22;20737;49.908;8.126;2022-12-31T00:49:38;13.60;99.90
34492;DHT22;20737;49.908;8.126;2022-12-31T00:52:05;13.60;99.90
34492;DHT22;20737;49.908;8.126;2022-12-31T00:54:38;13.60;99.90
34492;DHT22;20737;49.908;8.126;2022-12-31T00:57:04;13.60;99.90
34492;DHT22;20737;49.908;8.126;2022-12-31T00:59:35;13.60;99.90
34492;DHT22;20737;49.908;8.126;2022-12-31T01:02:02;13.70;99.90
34492;DHT22;20737;49.908;8.126;2022-12-31T01:04:29;13.70;99.90
34492;DHT22;20737;49.908;8.126;2022-12-31T01:06:56;13.80;99.90
34492;DHT22;20737;49.908;8.126;2022-12-31T01:09:22;13.80;99.90
34492;DHT22;20737;49.908;8.126;2022-12-31T01:11:52;13.80;99.90
34492;DHT22;20737;49.908;8.126;2022-12-31T01:14:18;13.70;99.90
34492;DHT22;20737;49.908;8.126;2022-12-31T01:16:48;13.70;99.90
34492;DHT22;20737;49.908;8.126;2022-12-31T01:19:18;13.70;99.90
34492;DHT22;20737;49.908;8.126;2022-12-31T01:21:46;13.70;99.90
34492;DHT22;20737;49.908;8.126;2022-12-31T01:24:14;13.80;99.90
34492;DHT22;20737;49.908;8.126;2022-12-31T01:26:42;13.80;99.90
34492;DHT22;20737;49.908;8.126;2022-12-31T01:29:09;13.90;99.90
34492;DHT22;20737;49.908;8.126;2022-12-31T01:31:37;13.90;99.90
34492;DHT22;20737;49.908;8.126;2022-12-31T01:34:06;13.90;99.90
34492;DHT22;20737;49.908;8.126;2022-12-31T01:36:36;14.00;99.90
34492;DHT22;20737;49.908;8.126;2022-12-31T01:39:05;14.00;99.90
34492;DHT22;20737;49.908;8.126;2022-12-31T01:41:34;14.10;99.90
34492;DHT22;20737;49.908;8.126;2022-12-31T01:47:13;14.00;99.90
34492;DHT22;20737;49.908;8.126;2022-12-31T01:49:44;14.20;99.90
34492;DHT22;20737;49.908;8.126;2022-12-31T01:52:16;14.10;99.90
34492;DHT22;20737;49.908;8.126;2022-12-31T01:54:46;14.10;99.90
34492;DHT22;20737;49.908;8.126;2022-12-31T01:57:15;14.10;99.90
34492;DHT22;20737;49.908;8.126;2022-12-31T01:59:42;14.00;99.90
34492;DHT22;20737;49.908;8.126;2022-12-31T02:02:10;14.10;99.90
34492;DHT22;20737;49.908;8.126;2022-12-31T02:04:37;14.10;99.90
34492;DHT22;20737;49.908;8.126;2022-12-31T02:07:07;14.00;99.90
34492;DHT22;20737;49.908;8.126;2022-12-31T02:09:37;14.00;99.90
34492;DHT22;20737;49.908;8.126;2022-12-31T02:12:04;14.10;99.90
34492;DHT22;20737;49.908;8.126;2022-12-31T02:14:33;14.10;99.90
34492;DHT22;20737;49.908;8.126;2022-12-31T02:17:06;14.10;99.90
34492;DHT22;20737;49.908;8.126;2022-12-31T02:20:30;14.20;99.90
34492;DHT22;20737;49.908;8.126;2022-12-31T02:26:21;14.30;99.90
34492;DHT22;20737;49.908;8.126;2022-12-31T02:29:19;14.30;99.90
34492;DHT22;20737;49.908;8.126;2022-12-31T02:31:55;14.20;99.90
34492;DHT22;20737;49.908;8.126;2022-12-31T02:34:26;14.20;99.90
34492;DHT22;20737;49.908;8.126;2022-12-31T02:36:57;14.20;99.90
34492;DHT22;20737;49.908;8.126;2022-12-31T02:39:25;14.30;99.90
34492;DHT22;20737;49.908;8.126;2022-12-31T02:41:52;14.30;99.90
34492;DHT22;20737;49.908;8.126;2022-12-31T02:44:23;14.20;99.90
34492;DHT22;20737;49.908;8.126;2022-12-31T02:47:09;14.20;99.90
34492;DHT22;20737;49.908;8.126;2022-12-31T02:49:45;14.20;99.90
34492;DHT22;20737;49.908;8.126;2022-12-31T02:52:21;14.20;99.90
34492;DHT22;20737;49.908;8.126;2022-12-31T02:54:54;14.30;99.90
34492;DHT22;20737;49.908;8.126;2022-12-31T02:57:27;14.30;99.90
34492;DHT22;20737;49.908;8.126;2022-12-31T03:00:01;14.20;99.90
34492;DHT22;20737;49.908;8.126;2022-12-31T03:02:48;14.10;99.90
34492;DHT22;20737;49.908;8.126;2022-12-31T03:05:17;14.10;99.90
34492;DHT22;20737;49.908;8.126;2022-12-31T03:07:47;14.10;99.90
34492;DHT22;20737;49.908;8.126;2022-12-31T03:10:13;14.00;99.90
34492;DHT22;20737;49.908;8.126;2022-12-31T03:12:44;14.00;99.90
34492;DHT22;20737;49.908;8.126;2022-12-31T03:15:18;14.00;99.90
34492;DHT22;20737;49.908;8.126;2022-12-31T03:17:58;14.10;99.90
34492;DHT22;20737;49.908;8.126;2022-12-31T03:20:28;14.10;99.90
34492;DHT22;20737;49.908;8.126;2022-12-31T03:23:15;14.10;99.90
34492;DHT22;20737;49.908;8.126;2022-12-31T03:25:44;14.10;99.90
34492;DHT22;20737;49.908;8.126;2022-12-31T03:28:12;14.10;99.90
34492;DHT22;20737;49.908;8.126;2022-12-31T03:30:41;14.10;99.90
34492;DHT22;20737;49.908;8.126;2022-12-31T03:33:13;14.10;99.90
34492;DHT22;20737;49.908;8.126;2022-12-31T03:35:44;14.10;99.90
34492;DHT22;20737;49.908;8.126;2022-12-31T03:38:11;14.20;99.90
34492;DHT22;20737;49.908;8.126;2022-12-31T03:40:40;14.20;99.90
34492;DHT22;20737;49.908;8.126;2022-12-31T03:43:09;14.30;99.90
34492;DHT22;20737;49.908;8.126;2022-12-31T03:45:35;14.30;99.90
34492;DHT22;20737;49.908;8.126;2022-12-31T03:48:07;14.40;99.90
34492;DHT22;20737;49.908;8.126;2022-12-31T03:50:36;14.30;99.90
34492;DHT22;20737;49.908;8.126;2022-12-31T03:53:03;14.40;99.90
34492;DHT22;20737;49.908;8.126;2022-12-31T03:55:30;14.30;99.90
34492;DHT22;20737;49.908;8.126;2022-12-31T03:57:57;14.30;99.90
34492;DHT22;20737;49.908;8.126;2022-12-31T04:00:24;14.40;99.90
34492;DHT22;20737;49.908;8.126;2022-12-31T04:02:51;14.40;99.90
34492;DHT22;20737;49.908;8.126;2022-12-31T04:05:18;14.40;99.90
34492;DHT22;20737;49.908;8.126;2022-12-31T04:07:47;14.40;99.90
34492;DHT22;20737;49.908;8.126;2022-12-31T04:10:15;14.40;99.90
34492;DHT22;20737;49.908;8.126;2022-12-31T04:12:43;14.40;99.90
34492;DHT22;20737;49.908;8.126;2022-12-31T04:15:14;14.50;99.90
34492;DHT22;20737;49.908;8.126;2022-12-31T04:17:41;14.50;99.90
34492;DHT22;20737;49.908;8.126;2022-12-31T04:20:09;14.60;99.90
34492;DHT22;20737;49.908;8.126;2022-12-31T04:22:36;14.60;99.90
34492;DHT22;20737;49.908;8.126;2022-12-31T04:25:08;14.70;99.90
34492;DHT22;20737;49.908;8.126;2022-12-31T04:27:37;14.70;99.90
34492;DHT22;20737;49.908;8.126;2022-12-31T04:30:08;14.70;99.90
34492;DHT22;20737;49.908;8.126;2022-12-31T04:32:35;14.70;99.90
34492;DHT22;20737;49.908;8.126;2022-12-31T04:35:07;14.60;99.90
34492;DHT22;20737;49.908;8.126;2022-12-31T04:37:36;14.70;99.90
34492;DHT22;20737;49.908;8.126;2022-12-31T04:40:08;14.70;99.90
34492;DHT22;20737;49.908;8.126;2022-12-31T04:42:35;14.90;99.90
34492;DHT22;20737;49.908;8.126;2022-12-31T04:45:02;15.00;99.90
34492;DHT22;20737;49.908;8.126;2022-12-31T04:47:29;15.00;99.90
34492;DHT22;20737;49.908;8.126;2022-12-31T04:49:56;15.10;99.90
34492;DHT22;20737;49.908;8.126;2022-12-31T04:52:22;15.10;99.90
34492;DHT22;20737;49.908;8.126;2022-12-31T04:54:49;15.10;99.90
34492;DHT22;20737;49.908;8.126;2022-12-31T04:57:17;15.10;99.90
34492;DHT22;20737;49.908;8.126;2022-12-31T04:59:45;15.10;99.90
34492;DHT22;20737;49.908;8.126;2022-12-31T05:02:15;15.10;99.90
34492;DHT22;20737;49.908;8.126;2022-12-31T05:04:41;15.20;99.90
34492;DHT22;20737;49.908;8.126;2022-12-31T05:07:08;15.30;99.90
34492;DHT22;20737;49.908;8.126;2022-12-31T05:09:35;15.30;99.90
34492;DHT22;20737;49.908;8.126;2022-12-31T05:12:02;15.20;99.90
34492;DHT22;20737;49.908;8.126;2022-12-31T05:14:30;15.20;99.90
34492;DHT22;20737;49.908;8.126;2022-12-31T05:16:57;15.40;99.90
34492;DHT22;20737;49.908;8.126;2022-12-31T05:19:25;15.40;99.90
34492;DHT22;20737;49.908;8.126;2022-12-31T05:21:52;15.30;99.90
34492;DHT22;20737;49.908;8.126;2022-12-31T05:24:32;15.30;99.90
34492;DHT22;20737;49.908;8.126;2022-12-31T05:26:59;15.20;99.90
34492;DHT22;20737;49.908;8.126;2022-12-31T05:29:26;15.10;99.90
34492;DHT22;20737;49.908;8.126;2022-12-31T05:31:54;15.10;99.90
34492;DHT22;20737;49.908;8.126;2022-12-31T05:34:20;15.20;99.90
34492;DHT22;20737;49.908;8.126;2022-12-31T05:36:47;15.20;99.90
34492;DHT22;20737;49.908;8.126;2022-12-31T05:39:14;15.20;99.90
34492;DHT22;20737;49.908;8.126;2022-12-31T05:41:41;15.20;99.90
34492;DHT22;20737;49.908;8.126;2022-12-31T05:44:09;15.20;99.90
34492;DHT22;20737;49.908;8.126;2022-12-31T05:46:36;15.20;99.90
34492;DHT22;20737;49.908;8.126;2022-12-31T05:49:07;15.20;99.90
34492;DHT22;20737;49.908;8.126;2022-12-31T05:51:34;15.20;99.90
34492;DHT22;20737;49.908;8.126;2022-12-31T05:54:03;15.30;99.90
34492;DHT22;20737;49.908;8.126;2022-12-31T05:56:30;15.40;99.90
34492;DHT22;20737;49.908;8.126;2022-12-31T05:58:58;15.40;99.90
34492;DHT22;20737;49.908;8.126;2022-12-31T06:01:24;15.40;99.90
34492;DHT22;20737;49.908;8.126;2022-12-31T06:03:51;15.30;99.90
34492;DHT22;20737;49.908;8.126;2022-12-31T06:06:19;15.40;99.90
34492;DHT22;20737;49.908;8.126;2022-12-31T06:08:48;15.40;99.90
34492;DHT22;20737;49.908;8.126;2022-12-31T06:11:15;15.50;99.90
34492;DHT22;20737;49.908;8.126;2022-12-31T06:13:41;15.50;99.90
34492;DHT22;20737;49.908;8.126;2022-12-31T06:16:09;15.40;99.90
34492;DHT22;20737;49.908;8.126;2022-12-31T06:18:36;15.50;99.90
34492;DHT22;20737;49.908;8.126;2022-12-31T06:21:03;15.60;99.90
34492;DHT22;20737;49.908;8.126;2022-12-31T06:23:33;15.60;99.90
34492;DHT22;20737;49.908;8.126;2022-12-31T06:26:02;15.50;99.90
34492;DHT22;20737;49.908;8.126;2022-12-31T06:28:29;15.50;99.90
34492;DHT22;20737;49.908;8.126;2022-12-31T06:30:57;15.40;99.90
34492;DHT22;20737;49.908;8.126;2022-12-31T06:33:26;15.50;99.90
34492;DHT22;20737;49.908;8.126;2022-12-31T06:35:57;15.40;99.90
34492;DHT22;20737;49.908;8.126;2022-12-31T06:38:25;15.40;99.90
34492;DHT22;20737;49.908;8.126;2022-12-31T06:40:54;15.50;99.90
34492;DHT22;20737;49.908;8.126;2022-12-31T06:43:21;15.50;99.90
34492;DHT22;20737;49.908;8.126;2022-12-31T06:45:48;15.50;99.90
34492;DHT22;20737;49.908;8.126;2022-12-31T06:48:15;15.50;99.90
34492;DHT22;20737;49.908;8.126;2022-12-31T06:50:43;15.50;99.90
34492;DHT22;20737;49.908;8.126;2022-12-31T06:53:12;15.40;99.90
34492;DHT22;20737;49.908;8.126;2022-12-31T06:55:42;15.50;99.90
34492;DHT22;20737;49.908;8.126;2022-12-31T06:58:11;15.50;99.90
34492;DHT22;20737;49.908;8.126;2022-12-31T07:00:40;15.40;99.90
34492;DHT22;20737;49.908;8.126;2022-12-31T07:03:21;15.40;99.90
34492;DHT22;20737;49.908;8.126;2022-12-31T07:05:58;15.40;99.90
34492;DHT22;20737;49.908;8.126;2022-12-31T07:08:36;15.40;99.90
34492;DHT22;20737;49.908;8.126;2022-12-31T07:11:11;15.30;99.90
34492;DHT22;20737;49.908;8.126;2022-12-31T07:14:01;15.20;99.90
34492;DHT22;20737;49.908;8.126;2022-12-31T07:16:35;15.30;99.90
34492;DHT22;20737;49.908;8.126;2022-12-31T07:19:12;15.20;99.90
34492;DHT22;20737;49.908;8.126;2022-12-31T07:21:41;15.20;99.90
34492;DHT22;20737;49.908;8.126;2022-12-31T07:24:10;15.20;99.90
34492;DHT22;20737;49.908;8.126;2022-12-31T07:26:59;15.10;99.90
34492;DHT22;20737;49.908;8.126;2022-12-31T07:29:38;15.10;99.90
34492;DHT22;20737;49.908;8.126;2022-12-31T07:32:22;15.10;99.90
34492;DHT22;20737;49.908;8.126;2022-12-31T07:34:57;15.10;99.90
34492;DHT22;20737;49.908;8.126;2022-12-31T07:37:34;15.10;99.90
34492;DHT22;20737;49.908;8.126;2022-12-31T07:40:10;15.00;99.90
34492;DHT22;20737;49.908;8.126;2022-12-31T07:42:47;15.00;99.90
34492;DHT22;20737;49.908;8.126;2022-12-31T07:45:27;14.90;99.90
34492;DHT22;20737;49.908;8.126;2022-12-31T07:47:58;14.90;99.90
34492;DHT22;20737;49.908;8.126;2022-12-31T07:50:25;14.90;99.90
34492;DHT22;20737;49.908;8.126;2022-12-31T07:52:52;14.90;99.90
34492;DHT22;20737;49.908;8.126;2022-12-31T07:55:19;14.90;99.90
34492;DHT22;20737;49.908;8.126;2022-12-31T07:57:49;14.90;99.90
34492;DHT22;20737;49.908;8.126;2022-12-31T08:00:18;14.80;99.90
34492;DHT22;20737;49.908;8.126;2022-12-31T08:03:09;14.90;99.90
34492;DHT22;20737;49.908;8.126;2022-12-31T08:05:47;14.90;99.90
34492;DHT22;20737;49.908;8.126;2022-12-31T08:08:23;15.00;99.90
34492;DHT22;20737;49.908;8.126;2022-12-31T08:11:00;15.00;99.90
34492;DHT22;20737;49.908;8.126;2022-12-31T08:13:29;15.00;99.90
34492;DHT22;20737;49.908;8.126;2022-12-31T08:15:57;15.00;99.90
34492;DHT22;20737;49.908;8.126;2022-12-31T08:18:26;15.00;99.90
34492;DHT22;20737;49.908;8.126;2022-12-31T08:20:58;15.00;99.90
34492;DHT22;20737;49.908;8.126;2022-12-31T08:23:33;15.00;99.90
34492;DHT22;20737;49.908;8.126;2022-12-31T08:26:13;15.00;99.90
34492;DHT22;20737;49.908;8.126;2022-12-31T08:28:57;15.00;99.90
34492;DHT22;20737;49.908;8.126;2022-12-31T08:31:32;15.00;99.90
34492;DHT22;20737;49.908;8.126;2022-12-31T08:34:07;15.00;99.90
34492;DHT22;20737;49.908;8.126;2022-12-31T08:36:44;15.10;99.90
34492;DHT22;20737;49.908;8.126;2022-12-31T08:39:33;15.10;99.90
34492;DHT22;20737;49.908;8.126;2022-12-31T08:42:21;15.10;99.90
34492;DHT22;20737;49.908;8.126;2022-12-31T08:44:59;15.10;99.90
34492;DHT22;20737;49.908;8.126;2022-12-31T08:47:35;15.20;99.90
34492;DHT22;20737;49.908;8.126;2022-12-31T08:50:11;15.20;99.90
34492;DHT22;20737;49.908;8.126;2022-12-31T08:52:40;15.10;99.90
34492;DHT22;20737;49.908;8.126;2022-12-31T08:55:12;15.10;99.90
34492;DHT22;20737;49.908;8.126;2022-12-31T08:57:43;15.10;99.90
34492;DHT22;20737;49.908;8.126;2022-12-31T09:00:14;15.10;99.90
34492;DHT22;20737;49.908;8.126;2022-12-31T09:05:51;15.20;99.90
34492;DHT22;20737;49.908;8.126;2022-12-31T09:08:27;15.30;99.90
34492;DHT22;20737;49.908;8.126;2022-12-31T09:10:59;15.40;99.90
34492;DHT22;20737;49.908;8.126;2022-12-31T09:13:36;15.50;99.90
34492;DHT22;20737;49.908;8.126;2022-12-31T09:16:11;15.40;99.90
34492;DHT22;20737;49.908;8.126;2022-12-31T09:18:42;15.50;99.90
34492;DHT22;20737;49.908;8.126;2022-12-31T09:21:12;15.50;99.90
34492;DHT22;20737;49.908;8.126;2022-12-31T09:23:42;15.50;99.90
34492;DHT22;20737;49.908;8.126;2022-12-31T09:26:16;15.60;99.90
34492;DHT22;20737;49.908;8.126;2022-12-31T09:28:52;15.60;99.90
34492;DHT22;20737;49.908;8.126;2022-12-31T09:31:29;15.60;99.90
34492;DHT22;20737;49.908;8.126;2022-12-31T09:34:04;15.70;99.90
34492;DHT22;20737;49.908;8.126;2022-12-31T09:36:39;15.90;99.90
34492;DHT22;20737;49.908;8.126;2022-12-31T09:39:11;16.00;99.90
34492;DHT22;20737;49.908;8.126;2022-12-31T09:50:37;16.50;99.90
34492;DHT22;20737;49.908;8.126;2022-12-31T09:53:38;16.40;99.90
34492;DHT22;20737;49.908;8.126;2022-12-31T09:56:11;16.30;99.90
34492;DHT22;20737;49.908;8.126;2022-12-31T09:58:47;16.60;99.90
34492;DHT22;20737;49.908;8.126;2022-12-31T10:01:25;17.10;99.90
34492;DHT22;20737;49.908;8.126;2022-12-31T10:04:09;18.20;99.90
34492;DHT22;20737;49.908;8.126;2022-12-31T10:06:44;19.00;99.90
34492;DHT22;20737;49.908;8.126;2022-12-31T10:09:29;19.70;99.90
34492;DHT22;20737;49.908;8.126;2022-12-31T10:12:22;20.20;99.90
34492;DHT22;20737;49.908;8.126;2022-12-31T10:15:11;19.20;99.90
34492;DHT22;20737;49.908;8.126;2022-12-31T10:17:51;18.20;99.90
34492;DHT22;20737;49.908;8.126;2022-12-31T10:20:32;17.90;99.90
34492;DHT22;20737;49.908;8.126;2022-12-31T10:23:20;17.70;99.90
34492;DHT22;20737;49.908;8.126;2022-12-31T10:26:09;18.10;99.90
34492;DHT22;20737;49.908;8.126;2022-12-31T10:28:48;18.70;99.90
34492;DHT22;20737;49.908;8.126;2022-12-31T10:31:36;19.80;99.90
34492;DHT22;20737;49.908;8.126;2022-12-31T10:34:15;19.50;99.90
34492;DHT22;20737;49.908;8.126;2022-12-31T10:36:53;19.50;99.90
34492;DHT22;20737;49.908;8.126;2022-12-31T10:42:37;20.50;99.90
34492;DHT22;20737;49.908;8.126;2022-12-31T10:45:32;20.20;99.90
34492;DHT22;20737;49.908;8.126;2022-12-31T10:57:39;19.90;99.90
34492;DHT22;20737;49.908;8.126;2022-12-31T11:00:16;19.50;99.90
34492;DHT22;20737;49.908;8.126;2022-12-31T11:03:20;19.40;99.90
34492;DHT22;20737;49.908;8.126;2022-12-31T11:09:26;19.00;99.90
34492;DHT22;20737;49.908;8.126;2022-12-31T11:12:03;18.40;99.90
34492;DHT22;20737;49.908;8.126;2022-12-31T11:14:43;18.10;99.90
34492;DHT22;20737;49.908;8.126;2022-12-31T11:17:24;17.90;99.90
34492;DHT22;20737;49.908;8.126;2022-12-31T11:20:06;18.00;99.90
34492;DHT22;20737;49.908;8.126;2022-12-31T11:22:49;17.90;99.90
34492;DHT22;20737;49.908;8.126;2022-12-31T11:25:28;17.80;99.90
34492;DHT22;20737;49.908;8.126;2022-12-31T11:34:16;18.00;99.90
34492;DHT22;20737;49.908;8.126;2022-12-31T11:36:55;18.00;99.90
34492;DHT22;20737;49.908;8.126;2022-12-31T11:39:33;17.70;99.90
34492;DHT22;20737;49.908;8.126;2022-12-31T11:42:18;17.80;99.90
34492;DHT22;20737;49.908;8.126;2022-12-31T11:44:54;17.90;99.90
34492;DHT22;20737;49.908;8.126;2022-12-31T11:47:49;17.90;99.90
34492;DHT22;20737;49.908;8.126;2022-12-31T11:50:27;17.80;99.90
34492;DHT22;20737;49.908;8.126;2022-12-31T11:53:08;17.70;99.90
34492;DHT22;20737;49.908;8.126;2022-12-31T11:55:46;17.60;99.90
34492;DHT22;20737;49.908;8.126;2022-12-31T11:58:16;17.70;99.90
34492;DHT22;20737;49.908;8.126;2022-12-31T12:00:51;17.50;99.90
34492;DHT22;20737;49.908;8.126;2022-12-31T12:03:21;17.20;99.90
34492;DHT22;20737;49.908;8.126;2022-12-31T12:05:49;17.10;99.90
34492;DHT22;20737;49.908;8.126;2022-12-31T12:08:16;17.10;99.90
34492;DHT22;20737;49.908;8.126;2022-12-31T12:10:45;17.00;99.90
34492;DHT22;20737;49.908;8.126;2022-12-31T12:13:19;17.10;99.90
34492;DHT22;20737;49.908;8.126;2022-12-31T12:15:48;17.10;99.90
34492;DHT22;20737;49.908;8.126;2022-12-31T12:18:34;17.30;99.90
34492;DHT22;20737;49.908;8.126;2022-12-31T12:21:09;17.30;99.90
34492;DHT22;20737;49.908;8.126;2022-12-31T12:23:37;17.30;99.90
34492;DHT22;20737;49.908;8.126;2022-12-31T12:26:04;17.30;99.90
34492;DHT22;20737;49.908;8.126;2022-12-31T12:28:41;17.20;99.90
34492;DHT22;20737;49.908;8.126;2022-12-31T12:31:17;17.30;99.90
34492;DHT22;20737;49.908;8.126;2022-12-31T12:33:50;17.10;99.90
34492;DHT22;20737;49.908;8.126;2022-12-31T12:36:18;17.10;99.90
34492;DHT22;20737;49.908;8.126;2022-12-31T12:38:45;17.10;99.90
34492;DHT22;20737;49.908;8.126;2022-12-31T12:41:19;17.20;99.90
34492;DHT22;20737;49.908;8.126;2022-12-31T12:43:46;17.30;99.90
34492;DHT22;20737;49.908;8.126;2022-12-31T12:46:29;17.30;99.90
34492;DHT22;20737;49.908;8.126;2022-12-31T12:49:00;17.40;99.90
34492;DHT22;20737;49.908;8.126;2022-12-31T12:51:41;17.50;99.90
34492;DHT22;20737;49.908;8.126;2022-12-31T12:54:18;17.60;99.90
34492;DHT22;20737;49.908;8.126;2022-12-31T12:56:53;17.70;99.90
34492;DHT22;20737;49.908;8.126;2022-12-31T12:59:48;17.60;99.90
34492;DHT22;20737;49.908;8.126;2022-12-31T13:02:49;17.60;99.90
34492;DHT22;20737;49.908;8.126;2022-12-31T13:05:28;17.80;99.90
34492;DHT22;20737;49.908;8.126;2022-12-31T13:08:07;18.10;99.90
34492;DHT22;20737;49.908;8.126;2022-12-31T13:10:54;18.30;99.90
34492;DHT22;20737;49.908;8.126;2022-12-31T13:13:32;18.50;99.90
34492;DHT22;20737;49.908;8.126;2022-12-31T13:16:06;18.50;99.90
34492;DHT22;20737;49.908;8.126;2022-12-31T13:18:45;18.10;99.90
34492;DHT22;20737;49.908;8.126;2022-12-31T13:21:33;17.90;99.90
34492;DHT22;20737;49.908;8.126;2022-12-31T13:24:06;18.20;99.90
34492;DHT22;20737;49.908;8.126;2022-12-31T13:26:42;18.80;99.90
34492;DHT22;20737;49.908;8.126;2022-12-31T13:29:14;19.40;99.90
34492;DHT22;20737;49.908;8.126;2022-12-31T13:31:42;19.40;99.90
34492;DHT22;20737;49.908;8.126;2022-12-31T13:34:13;19.20;99.90
34492;DHT22;20737;49.908;8.126;2022-12-31T13:36:45;18.90;99.90
34492;DHT22;20737;49.908;8.126;2022-12-31T13:39:15;19.00;99.90
34492;DHT22;20737;49.908;8.126;2022-12-31T13:41:47;18.70;99.90
34492;DHT22;20737;49.908;8.126;2022-12-31T13:44:20;18.50;99.90
34492;DHT22;20737;49.908;8.126;2022-12-31T13:46:56;17.90;99.90
34492;DHT22;20737;49.908;8.126;2022-12-31T13:49:30;17.70;99.90
34492;DHT22;20737;49.908;8.126;2022-12-31T13:52:03;17.50;99.90
34492;DHT22;20737;49.908;8.126;2022-12-31T13:54:33;17.40;99.90
34492;DHT22;20737;49.908;8.126;2022-12-31T13:57:04;17.20;99.90
34492;DHT22;20737;49.908;8.126;2022-12-31T13:59:38;17.10;99.90
34492;DHT22;20737;49.908;8.126;2022-12-31T14:02:24;17.00;99.90
34492;DHT22;20737;49.908;8.126;2022-12-31T14:04:56;16.90;99.90
34492;DHT22;20737;49.908;8.126;2022-12-31T14:07:31;16.90;99.90
34492;DHT22;20737;49.908;8.126;2022-12-31T14:09:59;16.80;99.90
34492;DHT22;20737;49.908;8.126;2022-12-31T14:12:32;16.70;99.90
34492;DHT22;20737;49.908;8.126;2022-12-31T14:15:05;16.70;99.90
34492;DHT22;20737;49.908;8.126;2022-12-31T14:17:40;16.70;99.90
34492;DHT22;20737;49.908;8.126;2022-12-31T14:20:17;16.60;99.90
34492;DHT22;20737;49.908;8.126;2022-12-31T14:22:53;16.60;99.90
34492;DHT22;20737;49.908;8.126;2022-12-31T14:25:27;16.60;99.90
34492;DHT22;20737;49.908;8.126;2022-12-31T14:27:58;16.60;99.90
34492;DHT22;20737;49.908;8.126;2022-12-31T14:30:29;16.50;99.90
34492;DHT22;20737;49.908;8.126;2022-12-31T14:33:08;16.50;99.90
34492;DHT22;20737;49.908;8.126;2022-12-31T14:38:43;16.40;99.90
34492;DHT22;20737;49.908;8.126;2022-12-31T14:41:26;16.40;99.90
34492;DHT22;20737;49.908;8.126;2022-12-31T14:44:04;16.30;99.90
34492;DHT22;20737;49.908;8.126;2022-12-31T14:46:43;16.20;99.90
34492;DHT22;20737;49.908;8.126;2022-12-31T14:49:31;16.10;99.90
34492;DHT22;20737;49.908;8.126;2022-12-31T14:52:08;16.10;99.90
34492;DHT22;20737;49.908;8.126;2022-12-31T14:54:38;16.00;99.90
34492;DHT22;20737;49.908;8.126;2022-12-31T14:57:21;15.90;99.90
34492;DHT22;20737;49.908;8.126;2022-12-31T14:59:59;15.90;99.90
34492;DHT22;20737;49.908;8.126;2022-12-31T15:02:28;15.80;99.90
34492;DHT22;20737;49.908;8.126;2022-12-31T15:05:04;15.70;99.90
34492;DHT22;20737;49.908;8.126;2022-12-31T15:07:42;15.60;99.90
34492;DHT22;20737;49.908;8.126;2022-12-31T15:10:16;15.50;99.90
34492;DHT22;20737;49.908;8.126;2022-12-31T15:12:54;15.40;99.90
34492;DHT22;20737;49.908;8.126;2022-12-31T15:15:41;15.30;99.90
34492;DHT22;20737;49.908;8.126;2022-12-31T15:18:15;15.30;99.90
34492;DHT22;20737;49.908;8.126;2022-12-31T15:21:08;15.30;99.90
34492;DHT22;20737;49.908;8.126;2022-12-31T15:23:38;15.30;99.90
34492;DHT22;20737;49.908;8.126;2022-12-31T15:26:20;15.50;99.90
34492;DHT22;20737;49.908;8.126;2022-12-31T15:28:55;15.40;99.90
34492;DHT22;20737;49.908;8.126;2022-12-31T15:31:23;15.30;99.90
34492;DHT22;20737;49.908;8.126;2022-12-31T15:33:56;15.30;99.90
34492;DHT22;20737;49.908;8.126;2022-12-31T15:36:27;15.20;99.90
34492;DHT22;20737;49.908;8.126;2022-12-31T15:39:25;15.10;99.90
34492;DHT22;20737;49.908;8.126;2022-12-31T15:41:53;15.00;99.90
34492;DHT22;20737;49.908;8.126;2022-12-31T15:47:19;15.10;99.90
34492;DHT22;20737;49.908;8.126;2022-12-31T15:49:52;15.10;99.90
34492;DHT22;20737;49.908;8.126;2022-12-31T15:52:23;15.00;99.90
34492;DHT22;20737;49.908;8.126;2022-12-31T15:54:53;15.00;99.90
34492;DHT22;20737;49.908;8.126;2022-12-31T15:57:29;15.00;99.90
34492;DHT22;20737;49.908;8.126;2022-12-31T16:00:01;15.00;99.90
34492;DHT22;20737;49.908;8.126;2022-12-31T16:02:30;15.00;99.90
34492;DHT22;20737;49.908;8.126;2022-12-31T16:04:57;15.00;99.90
34492;DHT22;20737;49.908;8.126;2022-12-31T16:07:25;15.00;99.90
34492;DHT22;20737;49.908;8.126;2022-12-31T16:09:55;14.90;99.90
34492;DHT22;20737;49.908;8.126;2022-12-31T16:12:28;14.90;99.90
34492;DHT22;20737;49.908;8.126;2022-12-31T16:14:58;14.80;99.90
34492;DHT22;20737;49.908;8.126;2022-12-31T16:17:27;14.70;99.90
34492;DHT22;20737;49.908;8.126;2022-12-31T16:19:55;14.60;99.90
34492;DHT22;20737;49.908;8.126;2022-12-31T16:22:28;14.50;99.90
34492;DHT22;20737;49.908;8.126;2022-12-31T16:24:57;14.40;99.90
34492;DHT22;20737;49.908;8.126;2022-12-31T16:27:27;14.20;99.90
34492;DHT22;20737;49.908;8.126;2022-12-31T16:29:57;14.20;99.90
34492;DHT22;20737;49.908;8.126;2022-12-31T16:32:33;14.10;99.90
34492;DHT22;20737;49.908;8.126;2022-12-31T16:35:00;14.00;99.90
34492;DHT22;20737;49.908;8.126;2022-12-31T16:37:27;14.00;99.90
34492;DHT22;20737;49.908;8.126;2022-12-31T16:40:11;14.20;99.90
34492;DHT22;20737;49.908;8.126;2022-12-31T16:42:45;14.20;99.90
34492;DHT22;20737;49.908;8.126;2022-12-31T16:45:18;14.20;99.90
34492;DHT22;20737;49.908;8.126;2022-12-31T16:47:45;14.30;99.90
34492;DHT22;20737;49.908;8.126;2022-12-31T16:50:15;14.20;99.90
34492;DHT22;20737;49.908;8.126;2022-12-31T16:52:44;14.20;99.90